Time;durP1;ratioP1;P1;durP2;ratioP2;P2;SDS_P1;SDS_P2;PMS_P1;PMS_P2;Temp;Humidity;BMP_temperature;BMP_pressure;BME280_temperature;BME280_humidity;BME280_pressure;Samples;Min_cycle;Max_cycle;Signal;HPM_P1;HPM_P2
2022/03/03 00:02:09;;;;;;;4.13;4.03;;;16.70;61.60;;;;;;5031618;28;45185;-73
2022/03/03 00:04:37;;;;;;;4.87;4.73;;;16.70;61.80;;;;;;5054442;28;44299;-73
2022/03/03 00:07:08;;;;;;;4.80;4.70;;;16.60;61.90;;;;;;5086904;28;43988;-73
2022/03/03 00:09:37;;;;;;;4.83;4.63;;;16.60;62.10;;;;;;5079006;28;44362;-73
2022/03/03 00:12:09;;;;;;;4.90;4.60;;;16.60;62.20;;;;;;5053125;28;44060;-72
2022/03/03 00:14:38;;;;;;;4.87;4.67;;;16.60;62.50;;;;;;5053610;28;43931;-75
2022/03/03 00:17:07;;;;;;;5.00;4.80;;;16.60;62.70;;;;;;5070355;28;44089;-73
2022/03/03 00:19:35;;;;;;;5.33;5.13;;;16.70;62.20;;;;;;5054644;28;43921;-73
2022/03/03 00:22:04;;;;;;;5.20;4.90;;;16.80;61.70;;;;;;5070022;28;44868;-72
2022/03/03 00:24:33;;;;;;;4.93;4.73;;;16.80;62.10;;;;;;5047588;28;44211;-73
2022/03/03 00:27:01;;;;;;;4.77;4.57;;;16.80;61.40;;;;;;5046980;28;43970;-73
2022/03/03 00:29:31;;;;;;;4.57;4.47;;;16.80;61.60;;;;;;5048020;28;44046;-72
2022/03/03 00:32:00;;;;;;;4.87;4.70;;;16.70;61.70;;;;;;5053580;28;43802;-74
2022/03/03 00:34:29;;;;;;;4.77;4.63;;;16.60;61.90;;;;;;5044988;28;43929;-73
2022/03/03 00:36:57;;;;;;;4.93;4.73;;;16.60;62.10;;;;;;5069809;28;43977;-73
2022/03/03 00:39:26;;;;;;;4.67;4.57;;;16.60;62.20;;;;;;5053431;28;43550;-74
2022/03/03 00:41:55;;;;;;;4.87;4.67;;;16.50;62.20;;;;;;5053471;28;45967;-73
2022/03/03 00:44:24;;;;;;;4.63;4.53;;;16.50;62.30;;;;;;5069568;28;43995;-74
2022/03/03 00:46:55;;;;;;;4.13;4.03;;;16.50;62.40;;;;;;5070167;28;43953;-74
2022/03/03 00:49:24;;;;;;;4.73;4.53;;;16.50;62.40;;;;;;5070184;28;44048;-74
2022/03/03 00:51:54;;;;;;;5.03;4.83;;;16.40;62.40;;;;;;5037085;28;44339;-74
2022/03/03 00:54:22;;;;;;;4.97;4.77;;;16.50;62.60;;;;;;5069711;28;44065;-74
2022/03/03 00:56:51;;;;;;;4.80;4.70;;;16.50;62.80;;;;;;5070649;28;44065;-74
2022/03/03 00:59:20;;;;;;;5.10;4.90;;;16.60;62.50;;;;;;5036737;28;44106;-74
2022/03/03 01:01:49;;;;;;;5.10;4.90;;;16.80;62.00;;;;;;5070060;28;45994;-74
2022/03/03 01:04:19;;;;;;;5.10;4.90;;;17.00;61.60;;;;;;5052487;28;43960;-74
2022/03/03 01:06:48;;;;;;;5.10;4.90;;;17.10;61.00;;;;;;5036513;28;43918;-74
2022/03/03 01:09:17;;;;;;;5.10;4.80;;;17.20;60.80;;;;;;5053200;28;43627;-74
2022/03/03 01:11:45;;;;;;;5.07;4.87;;;17.10;60.60;;;;;;5069258;28;44036;-74
2022/03/03 01:14:14;;;;;;;4.70;4.60;;;17.00;60.70;;;;;;5051955;28;44077;-74
2022/03/03 01:16:42;;;;;;;4.93;4.73;;;16.90;60.90;;;;;;5052872;28;44005;-74
2022/03/03 01:19:11;;;;;;;4.43;4.30;;;16.80;61.20;;;;;;5019901;28;44096;-74
2022/03/03 01:21:41;;;;;;;5.10;4.90;;;16.70;61.40;;;;;;5086364;28;45263;-74
2022/03/03 01:24:09;;;;;;;4.50;4.40;;;16.70;61.60;;;;;;5069068;28;43833;-74
2022/03/03 01:26:38;;;;;;;4.57;4.47;;;16.60;61.80;;;;;;5035837;28;44085;-74
2022/03/03 01:29:07;;;;;;;4.97;4.77;;;16.60;61.90;;;;;;5053114;28;43975;-74
2022/03/03 01:31:35;;;;;;;4.90;4.70;;;16.50;61.90;;;;;;5052323;28;45425;-74
2022/03/03 01:34:03;;;;;;;5.33;5.10;;;16.50;62.00;;;;;;5035927;28;44009;-74
2022/03/03 01:36:33;;;;;;;5.00;4.80;;;16.50;62.40;;;;;;5051927;28;44021;-74
2022/03/03 01:39:03;;;;;;;5.27;5.07;;;16.70;62.20;;;;;;5053131;28;44101;-74
2022/03/03 01:41:33;;;;;;;5.20;5.10;;;16.80;61.70;;;;;;5069012;28;43870;-74
2022/03/03 01:44:02;;;;;;;5.20;5.00;;;16.80;61.30;;;;;;5052366;28;43503;-74
2022/03/03 01:46:30;;;;;;;4.20;4.10;;;16.80;61.20;;;;;;5019496;28;43488;-74
2022/03/03 01:48:59;;;;;;;5.10;4.90;;;16.70;61.30;;;;;;5036134;28;43959;-74
2022/03/03 01:51:28;;;;;;;5.23;5.03;;;16.70;61.60;;;;;;5035334;28;46209;-74
2022/03/03 01:53:56;;;;;;;5.13;4.93;;;16.60;61.60;;;;;;5068598;28;43988;-74
2022/03/03 01:56:27;;;;;;;5.03;4.83;;;16.60;61.90;;;;;;5052211;28;43979;-75
2022/03/03 01:58:56;;;;;;;4.83;4.70;;;16.60;62.00;;;;;;5036672;28;44027;-74
2022/03/03 02:01:24;;;;;;;5.20;5.00;;;16.50;62.00;;;;;;5052127;28;43600;-74
2022/03/03 02:03:53;;;;;;;5.00;4.80;;;16.50;62.80;;;;;;5035755;28;44424;-73
2022/03/03 02:06:21;;;;;;;5.23;5.03;;;16.50;62.20;;;;;;5035249;28;43630;-73
2022/03/03 02:08:50;;;;;;;4.87;4.67;;;16.40;62.20;;;;;;5053195;28;44079;-72
2022/03/03 02:11:19;;;;;;;5.03;4.83;;;16.40;62.20;;;;;;5051350;28;45338;-75
2022/03/03 02:13:49;;;;;;;5.10;4.90;;;16.40;62.30;;;;;;5052519;28;44140;-73
2022/03/03 02:16:18;;;;;;;5.30;5.10;;;16.40;62.60;;;;;;5078659;28;44245;-74
2022/03/03 02:18:46;;;;;;;5.30;5.10;;;16.60;62.40;;;;;;5050002;28;44061;-74
2022/03/03 02:21:17;;;;;;;5.10;4.90;;;16.80;62.00;;;;;;5058316;28;44074;-73
2022/03/03 02:23:45;;;;;;;5.40;5.20;;;16.90;61.30;;;;;;5068172;28;44071;-74
2022/03/03 02:26:17;;;;;;;5.20;5.00;;;17.10;60.90;;;;;;5068211;28;43390;-74
2022/03/03 02:28:46;;;;;;;5.83;5.53;;;17.10;60.50;;;;;;5068927;28;43918;-74
2022/03/03 02:31:14;;;;;;;4.90;4.70;;;17.10;60.30;;;;;;5051551;28;45675;-74
2022/03/03 02:33:43;;;;;;;5.40;5.20;;;17.00;60.40;;;;;;5068526;28;43913;-74
2022/03/03 02:36:20;;;;;;;5.13;4.83;;;16.90;60.80;;;;;;5050846;28;44125;-72
2022/03/03 02:38:49;;;;;;;5.23;5.03;;;16.80;61.00;;;;;;5068851;28;43950;-73
2022/03/03 02:41:18;;;;;;;5.80;5.50;;;16.70;61.20;;;;;;5067958;28;44020;-73
2022/03/03 02:43:46;;;;;;;5.47;5.27;;;16.60;61.40;;;;;;5051435;28;43374;-73
2022/03/03 02:46:15;;;;;;;5.60;5.40;;;16.60;61.60;;;;;;5051058;28;43487;-73
2022/03/03 02:48:43;;;;;;;5.47;5.27;;;16.60;61.70;;;;;;5035579;28;44057;-73
2022/03/03 02:51:12;;;;;;;5.17;4.97;;;16.50;61.80;;;;;;5051638;28;44080;-74
2022/03/03 02:53:42;;;;;;;5.70;5.50;;;16.50;61.90;;;;;;5068135;28;43907;-74
2022/03/03 02:56:11;;;;;;;5.47;5.17;;;16.50;62.30;;;;;;5067628;28;43987;-73
2022/03/03 02:58:39;;;;;;;5.43;5.23;;;16.60;62.10;;;;;;5068350;28;43912;-74
2022/03/03 03:01:08;;;;;;;6.10;5.80;;;16.80;61.70;;;;;;5067927;28;45838;-74
2022/03/03 03:03:38;;;;;;;5.50;5.30;;;16.80;61.30;;;;;;5067879;28;44015;-73
2022/03/03 03:06:07;;;;;;;5.00;4.80;;;16.80;61.10;;;;;;5067643;28;43353;-72
2022/03/03 03:08:36;;;;;;;5.63;5.40;;;16.70;61.20;;;;;;5068326;28;43605;-73
2022/03/03 03:11:06;;;;;;;5.30;5.10;;;16.60;61.30;;;;;;5067188;28;43976;-73
2022/03/03 03:13:35;;;;;;;5.43;5.13;;;16.60;61.50;;;;;;5067357;28;44148;-75
2022/03/03 03:16:04;;;;;;;5.60;5.40;;;16.60;61.70;;;;;;5047356;28;43918;-73
2022/03/03 03:18:34;;;;;;;5.17;4.97;;;16.50;61.80;;;;;;5050246;28;44246;-72
2022/03/03 03:21:02;;;;;;;5.43;5.23;;;16.50;61.80;;;;;;5085573;28;43982;-73
2022/03/03 03:23:30;;;;;;;6.07;5.67;;;16.40;61.90;;;;;;5056112;28;45579;-73
2022/03/03 03:25:59;;;;;;;5.73;5.53;;;16.40;62.10;;;;;;5047056;28;43958;-75
2022/03/03 03:28:30;;;;;;;5.77;5.57;;;16.40;62.10;;;;;;5081765;28;44024;-73
2022/03/03 03:30:59;;;;;;;5.50;5.30;;;16.40;62.10;;;;;;5050759;28;45400;-73
2022/03/03 03:33:27;;;;;;;5.70;5.50;;;16.40;62.90;;;;;;5066281;28;43958;-74
2022/03/03 03:35:56;;;;;;;5.77;5.57;;;16.40;62.60;;;;;;5049771;28;44037;-72
2022/03/03 03:38:26;;;;;;;5.77;5.47;;;16.50;62.40;;;;;;5050775;28;43934;-74
2022/03/03 03:40:54;;;;;;;5.70;5.50;;;16.60;62.00;;;;;;5066998;28;44100;-75
2022/03/03 03:43:22;;;;;;;5.60;5.40;;;16.80;61.50;;;;;;5077258;28;44005;-73
2022/03/03 03:45:52;;;;;;;5.40;5.20;;;16.90;60.90;;;;;;5040794;28;44049;-73
2022/03/03 03:48:21;;;;;;;5.80;5.60;;;17.00;60.60;;;;;;5044370;28;44038;-73
2022/03/03 03:50:50;;;;;;;5.90;5.67;;;16.90;60.40;;;;;;5061127;28;44247;-73
2022/03/03 03:53:19;;;;;;;5.40;5.20;;;16.80;60.40;;;;;;5030463;28;43959;-75
2022/03/03 03:55:48;;;;;;;5.53;5.33;;;16.80;60.80;;;;;;5066912;28;43858;-74
2022/03/03 03:58:16;;;;;;;5.30;5.10;;;16.70;61.10;;;;;;5067327;28;44042;-73
2022/03/03 04:00:45;;;;;;;5.60;5.40;;;16.60;61.20;;;;;;5067006;28;45082;-73
2022/03/03 04:03:15;;;;;;;5.57;5.37;;;16.50;61.40;;;;;;5033616;28;44030;-73
2022/03/03 04:05:44;;;;;;;5.33;5.13;;;16.50;61.50;;;;;;5066950;28;43833;-73
2022/03/03 04:08:14;;;;;;;5.70;5.50;;;16.50;61.70;;;;;;5050359;28;43772;-73
2022/03/03 04:10:42;;;;;;;5.00;4.90;;;16.50;61.80;;;;;;5066021;28;44036;-73
2022/03/03 04:13:11;;;;;;;5.67;5.40;;;16.50;61.80;;;;;;5050263;28;44065;-75
2022/03/03 04:15:39;;;;;;;5.57;5.33;;;16.50;62.20;;;;;;5049157;28;44436;-73
2022/03/03 04:18:08;;;;;;;5.83;5.43;;;16.50;62.00;;;;;;5050382;28;43922;-74
2022/03/03 04:20:38;;;;;;;5.90;5.60;;;16.70;61.70;;;;;;5066817;28;44021;-73
2022/03/03 04:23:06;;;;;;;5.57;5.37;;;16.70;61.10;;;;;;5049749;28;44194;-73
2022/03/03 04:25:35;;;;;;;5.53;5.33;;;16.70;60.80;;;;;;5049906;28;43982;-73
2022/03/03 04:28:04;;;;;;;5.60;5.40;;;16.70;60.90;;;;;;5066688;28;43635;-73
2022/03/03 04:30:34;;;;;;;5.83;5.63;;;16.70;61.10;;;;;;5049192;28;45097;-73
2022/03/03 04:33:02;;;;;;;5.50;5.30;;;16.60;61.20;;;;;;5066740;28;44249;-73
2022/03/03 04:35:30;;;;;;;6.10;5.80;;;16.60;61.30;;;;;;5032914;28;43428;-73
2022/03/03 04:38:08;;;;;;;5.60;5.40;;;16.50;61.40;;;;;;5050103;28;44151;-73
2022/03/03 04:40:42;;;;;;;5.70;5.40;;;16.50;61.50;;;;;;5068280;28;43991;-73
2022/03/03 04:43:10;;;;;;;5.33;5.13;;;16.50;61.70;;;;;;5032670;28;43852;-73
2022/03/03 04:45:39;;;;;;;5.47;5.27;;;16.40;61.60;;;;;;5066728;28;43949;-73
2022/03/03 04:48:08;;;;;;;5.80;5.60;;;16.40;61.70;;;;;;5051404;28;44200;-74
2022/03/03 04:50:36;;;;;;;5.23;5.03;;;16.40;61.80;;;;;;5053060;28;45360;-73
2022/03/03 04:53:06;;;;;;;5.67;5.37;;;16.40;61.80;;;;;;5053262;28;43407;-73
2022/03/03 04:55:34;;;;;;;6.47;6.07;;;16.40;62.20;;;;;;5037014;28;43581;-73
2022/03/03 04:58:07;;;;;;;5.50;5.30;;;16.40;62.10;;;;;;5037966;28;43995;-73
2022/03/03 05:00:36;;;;;;;5.40;5.20;;;16.60;61.80;;;;;;5053126;28;44120;-73
2022/03/03 05:03:06;;;;;;;5.53;5.33;;;16.80;61.40;;;;;;5052414;28;44020;-72
2022/03/03 05:05:36;;;;;;;5.43;5.23;;;16.90;60.80;;;;;;5033759;28;44037;-74
2022/03/03 05:08:09;;;;;;;5.63;5.43;;;17.00;60.30;;;;;;5052664;28;44131;-74
2022/03/03 05:10:37;;;;;;;5.73;5.53;;;17.00;60.20;;;;;;5053106;28;46803;-73
2022/03/03 05:13:05;;;;;;;5.20;5.00;;;16.90;60.10;;;;;;5035647;28;43945;-73
2022/03/03 05:15:34;;;;;;;5.27;5.17;;;16.80;60.30;;;;;;5069283;28;43952;-72
2022/03/03 05:18:02;;;;;;;5.50;5.20;;;16.80;60.70;;;;;;5049509;28;44176;-73
2022/03/03 05:20:31;;;;;;;5.40;5.20;;;16.70;60.90;;;;;;5062971;28;43977;-73
2022/03/03 05:22:59;;;;;;;5.30;5.10;;;16.60;61.10;;;;;;5044128;28;44011;-74
2022/03/03 05:25:30;;;;;;;5.47;5.17;;;16.60;61.30;;;;;;5043505;28;43995;-73
2022/03/03 05:28:00;;;;;;;5.60;5.40;;;16.50;61.40;;;;;;5014850;28;44063;-73
2022/03/03 05:30:29;;;;;;;5.37;5.17;;;16.50;61.50;;;;;;5036450;28;45489;-73
2022/03/03 05:32:57;;;;;;;5.33;5.10;;;16.50;61.60;;;;;;5052634;28;44215;-73
2022/03/03 05:35:27;;;;;;;5.67;5.37;;;16.40;62.60;;;;;;5068618;28;43989;-73
2022/03/03 05:37:55;;;;;;;5.50;5.20;;;16.50;61.90;;;;;;5051206;28;43583;-73
2022/03/03 05:40:25;;;;;;;6.23;5.83;;;16.60;61.40;;;;;;5052346;28;43988;-72
2022/03/03 05:42:56;;;;;;;5.30;5.10;;;16.70;61.00;;;;;;5051566;28;44225;-72
2022/03/03 05:45:24;;;;;;;5.00;4.80;;;16.70;60.90;;;;;;5052508;28;44053;-73
2022/03/03 05:47:53;;;;;;;4.90;4.77;;;16.70;60.90;;;;;;5036720;28;43849;-73
2022/03/03 05:50:21;;;;;;;5.53;5.33;;;16.60;61.00;;;;;;5052039;28;44038;-73
2022/03/03 05:52:50;;;;;;;5.90;5.60;;;16.60;61.20;;;;;;5036116;28;43926;-73
2022/03/03 05:55:18;;;;;;;4.97;4.77;;;16.50;61.30;;;;;;5035359;28;44078;-74
2022/03/03 05:57:46;;;;;;;5.37;5.17;;;16.50;61.50;;;;;;5051743;28;43514;-74
2022/03/03 06:00:26;;;;;;;5.27;5.07;;;16.40;61.60;;;;;;5068433;28;44230;-72
2022/03/03 06:02:55;;;;;;;5.73;5.43;;;16.40;61.60;;;;;;5059236;28;44281;-73
2022/03/03 06:05:25;;;;;;;5.27;5.07;;;16.40;61.80;;;;;;5050249;28;44068;-72
2022/03/03 06:07:56;;;;;;;5.40;5.20;;;16.40;61.90;;;;;;5069128;28;43423;-73
2022/03/03 06:10:25;;;;;;;5.23;5.03;;;16.30;61.90;;;;;;5052231;28;46269;-73
2022/03/03 06:12:59;;;;;;;5.40;5.13;;;16.30;61.90;;;;;;5052988;28;44056;-73
2022/03/03 06:15:29;;;;;;;5.33;5.13;;;16.30;62.20;;;;;;5035671;28;43388;-73
2022/03/03 06:17:57;;;;;;;5.40;5.10;;;16.40;62.20;;;;;;5069233;28;44288;-75
2022/03/03 06:20:27;;;;;;;5.17;4.97;;;16.60;61.90;;;;;;5051846;28;43979;-73
2022/03/03 06:22:56;;;;;;;5.10;4.90;;;16.80;61.30;;;;;;5032654;28;44031;-73
2022/03/03 06:25:25;;;;;;;5.30;5.10;;;16.90;60.70;;;;;;5041630;28;44068;-73
2022/03/03 06:27:54;;;;;;;5.47;5.27;;;17.00;60.30;;;;;;5062794;28;43998;-73
2022/03/03 06:30:24;;;;;;;4.93;4.73;;;17.00;60.20;;;;;;5028884;28;43917;-74
2022/03/03 06:32:54;;;;;;;4.90;4.70;;;16.90;60.20;;;;;;5051617;28;44615;-74
2022/03/03 06:35:23;;;;;;;5.47;5.20;;;16.80;60.30;;;;;;5067410;28;44108;-74
2022/03/03 06:37:52;;;;;;;4.60;4.50;;;16.80;60.70;;;;;;5051923;28;43969;-74
2022/03/03 06:40:20;;;;;;;5.30;5.10;;;16.70;60.90;;;;;;5086031;28;43854;-74
2022/03/03 06:42:49;;;;;;;5.00;4.80;;;16.60;61.00;;;;;;5068568;28;44007;-74
2022/03/03 06:45:17;;;;;;;4.80;4.67;;;16.50;61.20;;;;;;5067590;28;43742;-74
2022/03/03 06:47:48;;;;;;;4.67;4.57;;;16.50;61.40;;;;;;5035411;28;43894;-74
2022/03/03 06:50:19;;;;;;;4.67;4.57;;;16.40;61.40;;;;;;5052035;28;45144;-74
2022/03/03 06:52:48;;;;;;;4.97;4.77;;;16.40;61.60;;;;;;5068452;28;44078;-74
2022/03/03 06:55:18;;;;;;;5.20;5.00;;;16.40;61.80;;;;;;5050851;28;44048;-74
2022/03/03 06:57:47;;;;;;;5.13;4.93;;;16.50;62.00;;;;;;5068171;28;44015;-73
2022/03/03 07:00:17;;;;;;;5.27;5.00;;;16.60;61.70;;;;;;5033767;28;46524;-73
2022/03/03 07:02:47;;;;;;;5.40;5.20;;;16.60;61.80;;;;;;5042429;28;43962;-73
2022/03/03 07:05:17;;;;;;;4.93;4.73;;;16.70;60.90;;;;;;5065593;28;43997;-73
2022/03/03 07:07:47;;;;;;;5.10;4.90;;;16.60;60.90;;;;;;5051764;28;43937;-73
2022/03/03 07:10:19;;;;;;;5.13;4.93;;;16.60;61.00;;;;;;5067280;28;44086;-73
2022/03/03 07:12:47;;;;;;;5.17;4.97;;;16.50;61.10;;;;;;5066979;28;43883;-74
2022/03/03 07:15:16;;;;;;;4.73;4.53;;;16.50;61.40;;;;;;5050723;28;43941;-73
2022/03/03 07:17:47;;;;;;;4.60;4.50;;;16.40;61.40;;;;;;5035116;28;43652;-74
2022/03/03 07:20:18;;;;;;;4.93;4.73;;;16.40;61.60;;;;;;5050730;28;44048;-72
2022/03/03 07:22:58;;;;;;;4.80;4.60;;;16.40;61.60;;;;;;5034839;28;43765;-73
2022/03/03 07:25:33;;;;;;;5.13;4.93;;;16.40;61.80;;;;;;5029521;28;43417;-73
2022/03/03 07:28:02;;;;;;;5.13;4.93;;;16.30;61.80;;;;;;5068076;28;43954;-72
2022/03/03 07:30:32;;;;;;;5.10;4.80;;;16.30;61.90;;;;;;5067583;28;45262;-74
2022/03/03 07:33:07;;;;;;;5.37;5.10;;;16.30;62.00;;;;;;5034231;28;44082;-73
2022/03/03 07:35:38;;;;;;;5.07;4.67;;;16.30;62.20;;;;;;5063591;28;43981;-72
2022/03/03 07:38:13;;;;;;;5.17;4.87;;;16.40;62.20;;;;;;5064273;28;44055;-74
2022/03/03 07:40:42;;;;;;;5.83;4.80;;;16.50;61.80;;;;;;5063440;28;44702;-74
2022/03/03 07:43:12;;;;;;;6.20;5.50;;;16.70;61.20;;;;;;5064943;28;43469;-75
2022/03/03 07:45:41;;;;;;;5.17;4.83;;;16.80;60.80;;;;;;5063557;28;44005;-72
2022/03/03 07:48:10;;;;;;;5.20;4.90;;;16.90;60.30;;;;;;5063735;28;44038;-73
2022/03/03 07:50:40;;;;;;;5.10;4.80;;;16.90;60.10;;;;;;5046985;28;43882;-73
2022/03/03 07:53:10;;;;;;;5.63;4.83;;;16.80;60.10;;;;;;5046755;28;43929;-73
2022/03/03 07:55:42;;;;;;;4.70;4.43;;;16.80;60.50;;;;;;5065411;28;43416;-73
2022/03/03 07:58:13;;;;;;;4.50;4.30;;;16.70;60.70;;;;;;5047676;28;43969;-73
2022/03/03 08:00:47;;;;;;;5.40;4.97;;;16.60;61.10;;;;;;5047675;28;44489;-72
2022/03/03 08:03:18;;;;;;;4.80;4.40;;;16.50;61.30;;;;;;5058024;28;44062;-74
2022/03/03 08:05:51;;;;;;;4.80;4.50;;;16.50;61.40;;;;;;5051711;28;43921;-74
2022/03/03 08:08:22;;;;;;;4.87;4.57;;;16.40;61.60;;;;;;5058757;28;44113;-75
2022/03/03 08:10:55;;;;;;;5.10;4.90;;;16.40;61.80;;;;;;5065088;28;43863;-73
2022/03/03 08:13:23;;;;;;;4.67;4.47;;;16.40;61.90;;;;;;5027558;28;43334;-75
2022/03/03 08:15:52;;;;;;;4.30;4.17;;;16.30;61.90;;;;;;5043571;28;44015;-74
2022/03/03 08:18:21;;;;;;;5.50;5.17;;;16.40;62.30;;;;;;5026932;28;43984;-74
2022/03/03 08:20:52;;;;;;;4.90;4.60;;;16.50;61.90;;;;;;5047074;28;44096;-74
2022/03/03 08:23:20;;;;;;;4.67;4.50;;;16.60;61.50;;;;;;5048023;28;44085;-74
2022/03/03 08:25:49;;;;;;;5.07;4.73;;;16.60;61.20;;;;;;5047419;28;43976;-73
2022/03/03 08:28:20;;;;;;;4.67;4.57;;;16.60;61.30;;;;;;5031026;28;43887;-75
2022/03/03 08:30:48;;;;;;;5.03;4.67;;;16.60;61.50;;;;;;5047930;28;45195;-74
2022/03/03 08:33:20;;;;;;;4.90;4.70;;;16.50;61.60;;;;;;5014894;28;44108;-72
2022/03/03 08:35:56;;;;;;;5.10;4.80;;;16.40;61.80;;;;;;5069246;28;44035;-72
2022/03/03 08:38:28;;;;;;;4.80;4.60;;;16.40;61.90;;;;;;5070137;28;43938;-76
2022/03/03 08:40:57;;;;;;;5.10;4.90;;;16.30;61.80;;;;;;5069557;28;44903;-74
2022/03/03 08:43:26;;;;;;;4.70;4.40;;;16.30;62.00;;;;;;5032988;28;43456;-74
2022/03/03 08:45:56;;;;;;;4.50;4.30;;;16.30;62.00;;;;;;5033522;28;43885;-73
2022/03/03 08:48:25;;;;;;;4.60;4.40;;;16.30;62.10;;;;;;5029669;28;44010;-75
2022/03/03 08:50:55;;;;;;;4.97;4.77;;;16.30;62.20;;;;;;5027435;28;45660;-74
2022/03/03 08:53:23;;;;;;;4.63;4.50;;;16.30;62.30;;;;;;5043729;28;43885;-75
2022/03/03 08:55:53;;;;;;;4.53;4.33;;;16.30;62.30;;;;;;5034417;28;43981;-75
2022/03/03 08:58:22;;;;;;;4.73;4.47;;;16.30;62.70;;;;;;5050123;28;44127;-73
2022/03/03 09:00:51;;;;;;;4.70;4.50;;;16.40;62.70;;;;;;5033623;28;45401;-73
2022/03/03 09:03:22;;;;;;;4.27;4.00;;;16.50;62.20;;;;;;5050491;28;44054;-73
2022/03/03 09:05:51;;;;;;;4.20;4.10;;;16.70;61.80;;;;;;5002087;28;44091;-73
2022/03/03 09:08:22;;;;;;;4.60;4.40;;;16.80;61.20;;;;;;5033702;28;44027;-73
2022/03/03 09:10:50;;;;;;;4.43;4.30;;;16.90;60.90;;;;;;5049993;28;44198;-75
2022/03/03 09:13:20;;;;;;;4.70;4.50;;;16.80;60.40;;;;;;5049469;28;44008;-73
2022/03/03 09:15:48;;;;;;;4.50;4.23;;;16.80;60.80;;;;;;5050156;28;44114;-74
2022/03/03 09:18:17;;;;;;;4.27;4.17;;;16.70;60.90;;;;;;5049277;28;43918;-75
2022/03/03 09:20:45;;;;;;;4.67;4.27;;;16.60;61.10;;;;;;5087263;28;45083;-74
2022/03/03 09:23:14;;;;;;;4.47;4.37;;;16.50;61.30;;;;;;5052079;28;44456;-73
2022/03/03 09:25:44;;;;;;;4.83;4.63;;;16.50;61.50;;;;;;5052685;28;43958;-74
2022/03/03 09:28:12;;;;;;;4.60;4.40;;;16.50;61.70;;;;;;5086954;28;44027;-74
2022/03/03 09:30:46;;;;;;;4.80;4.50;;;16.50;61.90;;;;;;5037287;28;44039;-74
2022/03/03 09:33:15;;;;;;;4.83;4.60;;;16.40;61.90;;;;;;5036202;28;44371;-74
2022/03/03 09:35:43;;;;;;;5.00;4.60;;;16.40;61.90;;;;;;5050901;28;44005;-73
2022/03/03 09:38:12;;;;;;;4.70;4.50;;;16.40;62.90;;;;;;5036170;28;44170;-75
2022/03/03 09:40:45;;;;;;;5.73;5.13;;;16.50;62.50;;;;;;5052793;28;44048;-73
2022/03/03 09:43:14;;;;;;;8.50;5.90;;;16.60;62.10;;;;;;5085610;28;44150;-73
2022/03/03 09:45:43;;;;;;;14.43;6.83;;;16.60;61.40;;;;;;5068819;28;43969;-73
2022/03/03 09:48:17;;;;;;;20.90;8.23;;;16.60;61.30;;;;;;5069745;28;44253;-73
2022/03/03 09:50:47;;;;;;;20.67;8.37;;;16.60;61.40;;;;;;5068841;28;44672;-73
2022/03/03 09:53:17;;;;;;;18.80;8.37;;;16.50;61.50;;;;;;5068151;28;44682;-72
2022/03/03 09:55:48;;;;;;;22.70;8.90;;;16.50;61.70;;;;;;5069024;28;43877;-74
2022/03/03 09:58:16;;;;;;;22.90;9.27;;;16.50;61.90;;;;;;5062346;28;44173;-73
2022/03/03 10:00:44;;;;;;;21.57;9.20;;;16.40;62.00;;;;;;5055618;28;44044;-75
2022/03/03 10:03:14;;;;;;;22.07;9.80;;;16.40;62.20;;;;;;5068500;28;44119;-73
2022/03/03 10:05:47;;;;;;;25.90;10.53;;;16.40;62.30;;;;;;5068784;28;43984;-72
2022/03/03 10:08:18;;;;;;;20.33;9.70;;;16.40;62.40;;;;;;5068561;28;44007;-74
2022/03/03 10:10:53;;;;;;;21.33;9.47;;;16.40;62.50;;;;;;5052078;28;43951;-74
2022/03/03 10:13:22;;;;;;;27.60;10.13;;;16.40;62.50;;;;;;5068583;28;43981;-72
2022/03/03 10:15:52;;;;;;;24.00;10.37;;;16.40;62.50;;;;;;5035951;28;43987;-73
2022/03/03 10:18:20;;;;;;;20.93;9.87;;;16.40;62.80;;;;;;5035557;28;44245;-73
2022/03/03 10:20:49;;;;;;;18.07;9.63;;;16.40;62.80;;;;;;5052102;28;44363;-73
2022/03/03 10:23:21;;;;;;;18.83;9.37;;;16.60;62.60;;;;;;5051656;28;44212;-73
2022/03/03 10:25:54;;;;;;;16.63;9.20;;;16.80;62.10;;;;;;5051852;28;43467;-72
2022/03/03 10:28:24;;;;;;;18.67;9.67;;;16.90;61.50;;;;;;5069895;28;43493;-71
2022/03/03 10:30:58;;;;;;;22.60;9.83;;;17.00;60.90;;;;;;5051790;28;44035;-73
2022/03/03 10:33:29;;;;;;;20.43;10.33;;;17.00;60.70;;;;;;5034881;28;43997;-73
2022/03/03 10:36:05;;;;;;;16.80;9.03;;;16.90;60.90;;;;;;5031821;28;43994;-74
2022/03/03 10:38:35;;;;;;;18.90;9.10;;;16.90;61.30;;;;;;5012655;28;43994;-74
2022/03/03 10:41:06;;;;;;;18.80;9.53;;;16.80;61.60;;;;;;5012757;28;44898;-73
2022/03/03 10:43:47;;;;;;;20.37;9.40;;;16.70;61.80;;;;;;5053913;28;43998;-76
2022/03/03 10:46:16;;;;;;;19.53;9.70;;;16.60;61.90;;;;;;5048001;28;44123;-73
2022/03/03 10:48:45;;;;;;;16.50;9.10;;;16.60;62.20;;;;;;5048372;28;43467;-75
2022/03/03 10:51:16;;;;;;;16.70;9.20;;;16.60;62.40;;;;;;5048176;28;44080;-75
2022/03/03 10:53:44;;;;;;;16.83;9.60;;;16.50;62.40;;;;;;5047268;28;44036;-73
2022/03/03 10:56:17;;;;;;;19.67;9.97;;;16.50;62.40;;;;;;5030486;28;43856;-74
2022/03/03 10:58:53;;;;;;;23.83;10.47;;;16.50;62.70;;;;;;5028426;28;43950;-73
2022/03/03 11:01:23;;;;;;;20.43;9.70;;;16.50;63.00;;;;;;5031438;28;44023;-73
2022/03/03 11:03:53;;;;;;;18.93;9.20;;;16.60;62.70;;;;;;5032257;28;44414;-74
2022/03/03 11:06:24;;;;;;;16.07;8.90;;;16.70;62.40;;;;;;5047868;28;44067;-73
2022/03/03 11:08:52;;;;;;;17.10;9.00;;;16.70;62.50;;;;;;5048283;28;43978;-73
2022/03/03 11:11:23;;;;;;;18.77;8.60;;;16.70;62.70;;;;;;5043490;28;44669;-75
2022/03/03 11:13:51;;;;;;;15.53;9.17;;;16.60;62.80;;;;;;5058506;28;43930;-74
2022/03/03 11:16:21;;;;;;;14.30;8.20;;;16.60;62.90;;;;;;5038291;28;44175;-74
2022/03/03 11:18:50;;;;;;;15.27;8.33;;;16.60;63.00;;;;;;5025409;28;43895;-75
2022/03/03 11:21:18;;;;;;;14.23;8.97;;;16.50;63.00;;;;;;5046665;28;45184;-74
2022/03/03 11:23:48;;;;;;;13.60;8.23;;;16.50;63.10;;;;;;5047635;28;44018;-74
2022/03/03 11:26:23;;;;;;;13.10;8.03;;;16.50;63.20;;;;;;5030561;28;44077;-74
2022/03/03 11:29:02;;;;;;;11.77;8.33;;;16.50;63.30;;;;;;5031118;28;43855;-74
2022/03/03 11:31:32;;;;;;;11.33;8.03;;;16.50;63.30;;;;;;5030051;28;44016;-73
2022/03/03 11:34:30;;;;;;;11.80;7.53;;;16.50;63.40;;;;;;5047321;28;44155;-73
2022/03/03 11:37:06;;;;;;;10.60;8.00;;;16.50;63.30;;;;;;5057020;28;44017;-73
2022/03/03 11:39:45;;;;;;;12.80;7.47;;;16.50;63.40;;;;;;5051829;28;43515;-73
2022/03/03 11:42:30;;;;;;;11.87;7.70;;;16.50;63.30;;;;;;5068194;28;44023;-73
2022/03/03 11:44:59;;;;;;;15.67;7.77;;;16.70;62.90;;;;;;5067479;28;44067;-73
2022/03/03 11:47:29;;;;;;;9.57;7.20;;;16.90;62.40;;;;;;5034031;28;44028;-73
2022/03/03 11:50:02;;;;;;;12.27;7.97;;;17.00;61.90;;;;;;5050940;28;44002;-73
2022/03/03 11:52:30;;;;;;;8.97;7.47;;;17.00;61.70;;;;;;5041159;28;45503;-73
2022/03/03 11:55:00;;;;;;;7.30;6.57;;;17.00;61.90;;;;;;5067344;28;44009;-73
2022/03/03 11:57:32;;;;;;;9.00;7.10;;;16.90;62.00;;;;;;5032231;28;44027;-73
2022/03/03 12:00:01;;;;;;;9.50;6.87;;;16.90;62.30;;;;;;5038941;28;44169;-73
2022/03/03 12:02:40;;;;;;;7.97;6.90;;;16.80;62.30;;;;;;5069402;28;44471;-73
2022/03/03 12:05:36;;;;;;;7.60;6.60;;;16.80;62.50;;;;;;5037751;28;44199;-74
2022/03/03 12:08:07;;;;;;;7.70;6.43;;;16.80;62.70;;;;;;5077836;28;43946;-74
2022/03/03 12:10:36;;;;;;;7.50;6.60;;;16.70;62.60;;;;;;5070611;28;44461;-74
2022/03/03 12:13:27;;;;;;;7.73;6.50;;;16.70;62.80;;;;;;5070253;28;45756;-74
2022/03/03 12:16:18;;;;;;;8.83;7.47;;;16.70;62.90;;;;;;5070450;28;44755;-74
2022/03/03 12:18:48;;;;;;;7.30;6.60;;;16.70;63.00;;;;;;5077849;28;44063;-74
2022/03/03 12:21:27;;;;;;;9.47;6.53;;;16.70;62.90;;;;;;5087267;28;44063;-74
2022/03/03 12:24:28;;;;;;;8.07;7.13;;;16.80;62.50;;;;;;5035583;28;44253;-74
2022/03/03 12:27:17;;;;;;;9.47;6.83;;;16.80;62.40;;;;;;5070525;28;44498;-74
2022/03/03 12:29:56;;;;;;;9.43;6.73;;;16.80;62.50;;;;;;5070214;28;43428;-75
2022/03/03 12:32:45;;;;;;;6.73;6.03;;;16.80;62.60;;;;;;5070366;28;44056;-74
2022/03/03 12:35:29;;;;;;;6.50;5.90;;;16.70;62.60;;;;;;5063235;28;44297;-74
2022/03/03 12:37:59;;;;;;;6.90;6.20;;;16.70;62.80;;;;;;5070114;28;43989;-73
2022/03/03 12:40:31;;;;;;;7.13;6.43;;;16.70;62.90;;;;;;5071468;28;44063;-73
2022/03/03 12:43:00;;;;;;;6.80;5.93;;;16.60;62.90;;;;;;5071243;28;43994;-73
2022/03/03 12:45:31;;;;;;;7.13;6.43;;;16.60;63.00;;;;;;5069766;28;43901;-74
2022/03/03 12:48:00;;;;;;;6.77;6.03;;;16.60;63.10;;;;;;5053401;28;43922;-73
2022/03/03 12:50:30;;;;;;;6.80;6.00;;;16.60;63.20;;;;;;5053412;28;44346;-73
2022/03/03 12:53:00;;;;;;;6.27;5.77;;;16.60;63.20;;;;;;5053727;28;43432;-73
2022/03/03 12:55:33;;;;;;;6.47;5.87;;;16.60;63.30;;;;;;5086171;28;44856;-73
2022/03/03 12:58:04;;;;;;;7.23;6.53;;;16.60;63.40;;;;;;5069719;28;43990;-72
2022/03/03 13:00:36;;;;;;;8.57;7.00;;;16.60;63.20;;;;;;5070468;28;44015;-75
2022/03/03 13:03:05;;;;;;;6.67;6.17;;;16.80;62.80;;;;;;5036633;28;44121;-74